Terminal Aerodrome Forecast
Issued by NWS Jackson, KY

Home | Current Version | Previous Version | Text Only | Print | Product List | Glossary On
Versions: 1 2 3 4 5 6 7 8 9 10 11 12 13 14 15 16 17 18 19 20 21 22
000
FTUS43 KJKL 241816 RRA
TAFJKL
TAF
KJKL 241816Z 2418/2518 VRB03KT P6SM VCTS BKN015CB OVC040
      TEMPO 2418/2421 VRB15KT 3SM -TSRA BR BKN002 OVC015CB
     FM250000 VRB05KT P6SM VCSH SCT030 BKN050
     FM250600 23005KT P6SM VCSH OVC010=

USA.gov is the U.S. government's official web portal to all federal, state and local government web resources and services.